createdAt,value
2022-12-22T05:27:05.529Z,100157.31
2022-12-22T05:32:07.868Z,100142.53
2022-12-22T05:37:10.075Z,100142.63
2022-12-22T05:42:12.293Z,100129.03
2022-12-22T05:47:14.489Z,100127.59
2022-12-22T05:52:16.874Z,100115.91
2022-12-22T05:57:19.186Z,100113.66
2022-12-22T06:02:21.823Z,100101.94
2022-12-22T06:07:24.195Z,100100.53
2022-12-22T06:12:26.444Z,100099.94
2022-12-22T06:17:28.697Z,100096.09
2022-12-22T06:22:31.003Z,100093.84
2022-12-22T06:27:33.258Z,100083.00
2022-12-22T17:45:34.271Z,100063.53
2022-12-22T17:50:36.652Z,100067.78
2022-12-22T17:56:07.360Z,100071.06
2022-12-22T18:01:01.476Z,100070.09
2022-12-22T18:06:04.102Z,100071.88
2022-12-22T18:11:06.713Z,100070.38
2022-12-22T18:16:14.527Z,100083.88
2022-12-22T18:21:21.102Z,100103.31
2022-12-22T18:26:26.544Z,100098.25
2022-12-22T18:31:28.909Z,100093.81
2022-12-22T18:36:33.365Z,100099.44
2022-12-22T18:41:35.731Z,100112.03
2022-12-22T18:46:37.992Z,100105.28
2022-12-22T18:51:43.626Z,100102.97
2022-12-22T18:56:45.994Z,100101.53
2022-12-22T19:01:48.478Z,100105.53
2022-12-22T19:06:50.883Z,100107.19
2022-12-22T19:11:53.108Z,100117.34
2022-12-22T19:16:55.881Z,100109.16
2022-12-22T19:21:58.209Z,100113.91
2022-12-22T19:27:01.724Z,100111.19
2022-12-22T19:32:04.395Z,100113.38
2022-12-22T19:37:08.888Z,100114.16
2022-12-22T19:42:16.833Z,100117.03
2022-12-22T19:47:22.305Z,100119.88
2022-12-22T19:52:24.580Z,100124.88
2022-12-22T19:57:26.851Z,100129.50
2022-12-22T20:02:32.803Z,100117.78
2022-12-22T20:07:37.077Z,100112.25
2022-12-22T20:12:42.320Z,100113.44
2022-12-22T20:17:45.639Z,100115.31
2022-12-22T20:22:51.548Z,100103.28
2022-12-22T20:27:55.569Z,100112.66
2022-12-22T20:32:57.822Z,100114.63
2022-12-22T20:38:00.118Z,100119.13
2022-12-22T20:43:02.389Z,100125.53
2022-12-22T20:48:04.905Z,100123.28
2022-12-22T20:53:07.160Z,100117.66
2022-12-22T20:58:32.642Z,100125.41
2022-12-22T21:03:34.960Z,100127.50
2022-12-22T21:08:37.157Z,100124.41
2022-12-22T21:13:39.473Z,100127.41
2022-12-22T21:18:41.899Z,100124.31
2022-12-22T21:23:44.191Z,100123.66
2022-12-22T21:28:46.516Z,100120.88
2022-12-22T21:33:50.312Z,100122.09
2022-12-22T21:38:56.109Z,100126.72
2022-12-22T21:43:58.336Z,100106.72
2022-12-22T21:49:00.587Z,100110.81
2022-12-22T21:54:02.855Z,100114.00
2022-12-22T21:59:05.109Z,100113.66
2022-12-22T22:04:07.673Z,100115.22
2022-12-22T22:09:10.112Z,100116.75
2022-12-22T22:14:12.345Z,100105.59
2022-12-22T22:19:14.635Z,100110.56
2022-12-22T22:24:17.043Z,100103.59
2022-12-22T22:29:19.338Z,100109.69
2022-12-22T22:34:21.581Z,100110.69
2022-12-22T22:39:23.960Z,100106.47
2022-12-22T22:44:26.171Z,100099.63
2022-12-22T22:49:29.059Z,100094.47
2022-12-22T22:54:32.707Z,100085.84
2022-12-22T22:59:35.053Z,100086.31
2022-12-22T23:04:37.575Z,100088.03
2022-12-22T23:09:39.761Z,100086.50
2022-12-22T23:14:41.991Z,100083.97
2022-12-22T23:19:44.294Z,100078.25
2022-12-22T23:24:46.542Z,100071.28
2022-12-22T23:29:48.763Z,100068.09
2022-12-22T23:34:50.967Z,100063.91
2022-12-22T23:39:53.160Z,100062.47
2022-12-22T23:44:55.407Z,100056.50
2022-12-22T23:49:57.646Z,100051.41
2022-12-22T23:55:00.131Z,100045.72
